Time,TemperatureF,DewpointF,PressureIn,WindDirection,WindDirectionDegrees,WindSpeedMPH,WindSpeedGustMPH,Humidity,HourlyPrecipIn,Conditions,Clouds,dailyrainin,SolarRadiationWatts/m^2,SoftwareType,DateUTC
2013-03-08 00:04:00,48.0,44.3,29.65,ESE,112,2.9,2.9,87,0.00,CLR,,0.01,0.0,WeatherDisplay:10.37,2013-03-07 23:04:00,
2013-03-08 00:09:00,47.8,44.5,29.68,ESE,112,4.6,4.6,88,0.00,CLR,,0.01,0.0,WeatherDisplay:10.37,2013-03-07 23:09:00,
2013-03-08 00:14:00,47.8,44.2,29.68,ESE,112,5.8,5.8,87,0.00,CLR,,0.01,0.0,WeatherDisplay:10.37,2013-03-07 23:14:00,
2013-03-08 00:19:00,47.7,44.0,29.68,ESE,112,5.8,5.8,87,0.00,CLR,,0.01,0.0,WeatherDisplay:10.37,2013-03-07 23:19:00,
2013-03-08 00:24:00,47.7,44.3,29.65,ESE,112,6.2,6.2,88,0.00,CLR,,0.01,0.0,WeatherDisplay:10.37,2013-03-07 23:24:00,
2013-03-08 00:29:00,47.7,44.3,29.65,SSE,158,3.6,3.6,88,0.00,CLR,,0.01,0.0,WeatherDisplay:10.37,2013-03-07 23:29:00,
2013-03-08 00:34:00,47.5,44.1,29.65,ESE,112,6.0,6.0,88,0.00,CLR,,0.01,0.0,WeatherDisplay:10.37,2013-03-07 23:34:00,
2013-03-08 00:39:00,47.5,44.4,29.65,SSE,158,5.8,5.8,89,0.00,CLR,,0.01,0.0,WeatherDisplay:10.37,2013-03-07 23:39:00,
2013-03-08 00:44:00,47.3,44.2,29.65,ESE,112,3.5,3.5,89,0.00,CLR,,0.01,0.0,WeatherDisplay:10.37,2013-03-07 23:44:00,
2013-03-08 00:49:00,47.3,44.2,29.65,ESE,112,4.6,4.6,89,0.00,CLR,,0.01,0.0,WeatherDisplay:10.37,2013-03-07 23:49:00,
2013-03-08 00:54:00,47.3,44.5,29.68,ESE,112,6.2,6.2,90,0.00,CLR,,0.01,0.0,WeatherDisplay:10.37,2013-03-07 23:54:00,
2013-03-08 00:59:00,47.3,44.5,29.68,SSW,202,3.5,3.5,90,0.00,CLR,,0.01,0.0,WeatherDisplay:10.37,2013-03-07 23:59:00,
2013-03-08 01:05:00,47.1,44.3,29.68,ESE,112,5.8,5.8,90,0.00,CLR,,0.01,0.0,WeatherDisplay:10.37,2013-03-08 00:05:00,
2013-03-08 01:10:00,46.9,44.2,29.71,ESE,112,6.2,6.2,90,0.00,CLR,,0.01,0.0,WeatherDisplay:10.37,2013-03-08 00:10:00,
2013-03-08 01:15:00,46.9,44.2,29.71,ESE,112,5.9,5.9,90,0.00,CLR,,0.01,0.0,WeatherDisplay:10.37,2013-03-08 00:15:00,
2013-03-08 01:20:00,46.8,44.0,29.71,ESE,112,2.4,2.9,90,0.00,CLR,,0.01,0.0,WeatherDisplay:10.37,2013-03-08 00:20:00,
2013-03-08 01:25:00,46.8,44.3,29.68,ESE,112,5.8,5.8,91,0.00,CLR,,0.01,0.0,WeatherDisplay:10.37,2013-03-08 00:25:00,
2013-03-08 01:30:00,46.6,44.1,29.68,ESE,112,5.8,5.8,91,0.00,CLR,,0.01,0.0,WeatherDisplay:10.37,2013-03-08 00:30:00,
2013-03-08 01:35:00,46.4,44.2,29.68,ENE,68,3.5,3.5,92,0.00,CLR,,0.01,0.0,WeatherDisplay:10.37,2013-03-08 00:35:00,
2013-03-08 01:40:00,46.2,44.3,29.68,SE,135,5.8,5.8,93,0.00,CLR,,0.01,0.0,WeatherDisplay:10.37,2013-03-08 00:40:00,
2013-03-08 01:45:00,46.2,44.0,29.68,SE,135,6.9,6.9,92,0.00,CLR,,0.01,0.0,WeatherDisplay:10.37,2013-03-08 00:45:00,
2013-03-08 01:50:00,46.0,44.1,29.68,East,90,3.5,3.5,93,0.00,CLR,,0.01,0.0,WeatherDisplay:10.37,2013-03-08 00:50:00,
2013-03-08 01:55:00,45.9,43.7,29.68,ESE,112,2.3,2.3,92,0.00,CLR,,0.01,0.0,WeatherDisplay:10.37,2013-03-08 00:55:00,
2013-03-08 02:00:00,45.7,43.5,29.68,NE,45,4.6,4.6,92,0.00,CLR,,0.01,0.0,WeatherDisplay:10.37,2013-03-08 01:00:00,
2013-03-08 02:05:00,45.5,43.6,29.68,ESE,112,3.5,3.5,93,0.00,CLR,,0.01,0.0,WeatherDisplay:10.37,2013-03-08 01:05:00,
2013-03-08 02:10:00,45.5,43.6,29.68,ENE,68,2.6,2.6,93,0.00,CLR,,0.01,0.0,WeatherDisplay:10.37,2013-03-08 01:10:00,
2013-03-08 02:15:00,45.3,43.4,29.68,East,90,4.6,4.6,93,0.00,CLR,,0.01,0.0,WeatherDisplay:10.37,2013-03-08 01:15:00,
2013-03-08 02:20:00,45.1,43.2,29.68,ENE,68,3.5,0.0,93,0.00,CLR,,0.01,0.0,WeatherDisplay:10.37,2013-03-08 01:20:00,
2013-03-08 02:25:00,45.0,43.1,29.68,ESE,112,4.7,4.7,93,0.00,CLR,,0.01,0.0,WeatherDisplay:10.37,2013-03-08 01:25:00,
2013-03-08 02:30:00,45.0,43.1,29.68,ESE,112,6.9,6.9,93,0.00,CLR,,0.01,0.0,WeatherDisplay:10.37,2013-03-08 01:30:00,
2013-03-08 02:35:00,45.0,43.3,29.68,ESE,112,3.5,3.5,94,0.00,CLR,,0.01,0.0,WeatherDisplay:10.37,2013-03-08 01:35:00,
2013-03-08 02:41:00,45.0,43.3,29.68,ESE,112,4.6,0.0,94,0.00,CLR,,0.01,0.0,WeatherDisplay:10.37,2013-03-08 01:41:00,
2013-03-08 02:46:00,45.0,43.6,29.68,WNW,292,2.3,2.3,95,0.00,CLR,,0.01,0.0,WeatherDisplay:10.37,2013-03-08 01:46:00,
2013-03-08 02:51:00,45.0,43.6,29.68,NNE,22,5.8,5.8,95,0.00,CLR,,0.01,0.0,WeatherDisplay:10.37,2013-03-08 01:51:00,
2013-03-08 02:56:00,45.1,43.8,29.68,ESE,112,6.0,6.0,95,0.00,CLR,,0.01,0.0,WeatherDisplay:10.37,2013-03-08 01:56:00,
2013-03-08 03:02:00,45.1,44.1,29.68,ESE,112,5.8,5.8,96,0.00,CLR,,0.01,0.0,WeatherDisplay:10.37,2013-03-08 02:02:00,
2013-03-08 03:07:00,45.3,44.0,29.62,East,90,6.9,6.9,95,0.00,CLR,,0.01,0.0,WeatherDisplay:10.37,2013-03-08 02:07:00,
2013-03-08 03:12:00,45.3,44.0,29.62,ESE,112,4.3,4.3,95,0.00,CLR,,0.01,0.0,WeatherDisplay:10.37,2013-03-08 02:12:00,
2013-03-08 03:17:00,45.1,43.8,29.62,NNE,22,2.3,2.3,95,0.00,CLR,,0.01,0.0,WeatherDisplay:10.37,2013-03-08 02:17:00,
2013-03-08 03:22:00,45.1,43.8,29.68,ESE,112,3.5,3.6,95,0.00,CLR,,0.01,0.0,WeatherDisplay:10.37,2013-03-08 02:22:00,
2013-03-08 03:27:00,45.1,43.8,29.68,North,0,5.8,5.8,95,0.00,CLR,,0.01,0.0,WeatherDisplay:10.37,2013-03-08 02:27:00,
2013-03-08 03:32:00,45.1,43.8,29.68,ESE,112,3.5,3.5,95,0.00,CLR,,0.01,0.0,WeatherDisplay:10.37,2013-03-08 02:32:00,
2013-03-08 03:37:00,45.0,43.6,29.65,ESE,112,2.4,2.4,95,0.00,CLR,,0.01,0.0,WeatherDisplay:10.37,2013-03-08 02:37:00,
2013-03-08 03:42:00,45.0,43.6,29.65,ESE,112,2.4,2.4,95,0.00,CLR,,0.01,0.0,WeatherDisplay:10.37,2013-03-08 02:42:00,
2013-03-08 03:47:00,45.0,43.9,29.65,ESE,112,4.6,4.6,96,0.00,CLR,,0.01,0.0,WeatherDisplay:10.37,2013-03-08 02:47:00,
2013-03-08 03:52:00,45.0,43.9,29.62,South,180,3.5,3.5,96,0.00,CLR,,0.01,0.0,WeatherDisplay:10.37,2013-03-08 02:52:00,
2013-03-08 03:57:00,45.0,43.9,29.62,ESE,112,5.8,5.8,96,0.00,CLR,,0.01,0.0,WeatherDisplay:10.37,2013-03-08 02:57:00,
2013-03-08 04:02:00,45.0,43.9,29.62,SSE,158,6.9,6.9,96,0.00,CLR,,0.01,0.0,WeatherDisplay:10.37,2013-03-08 03:02:00,
2013-03-08 04:07:00,44.8,43.7,29.65,ENE,68,5.8,5.8,96,0.00,CLR,,0.01,0.0,WeatherDisplay:10.37,2013-03-08 03:07:00,
2013-03-08 04:12:00,44.8,43.7,29.65,SSE,158,4.7,4.7,96,0.00,CLR,,0.01,0.0,WeatherDisplay:10.37,2013-03-08 03:12:00,
2013-03-08 04:17:00,44.8,43.7,29.65,ESE,112,7.1,7.1,96,0.00,CLR,,0.01,0.0,WeatherDisplay:10.37,2013-03-08 03:17:00,
2013-03-08 04:22:00,44.6,43.5,29.65,ESE,112,6.2,6.2,96,0.00,CLR,,0.01,0.0,WeatherDisplay:10.37,2013-03-08 03:22:00,
2013-03-08 04:27:00,44.6,43.5,29.65,ESE,112,6.9,6.9,96,0.00,CLR,,0.01,0.0,WeatherDisplay:10.37,2013-03-08 03:27:00,
2013-03-08 04:32:00,44.6,43.5,29.65,ESE,112,6.9,6.9,96,0.00,CLR,,0.01,0.0,WeatherDisplay:10.37,2013-03-08 03:32:00,
2013-03-08 04:37:00,44.6,43.5,29.65,NNW,338,4.0,4.0,96,0.00,CLR,,0.01,0.0,WeatherDisplay:10.37,2013-03-08 03:37:00,
2013-03-08 04:42:00,44.6,43.5,29.65,East,90,4.9,4.9,96,0.00,CLR,,0.01,0.0,WeatherDisplay:10.37,2013-03-08 03:42:00,
2013-03-08 04:47:00,44.6,43.5,29.65,ENE,68,3.5,3.5,96,0.00,CLR,,0.01,0.0,WeatherDisplay:10.37,2013-03-08 03:47:00,
2013-03-08 04:52:00,44.6,43.5,29.65,East,90,4.5,4.5,96,0.00,CLR,,0.01,0.0,WeatherDisplay:10.37,2013-03-08 03:52:00,
2013-03-08 04:57:00,44.6,43.8,29.65,ENE,68,4.6,4.6,97,0.00,CLR,,0.01,0.0,WeatherDisplay:10.37,2013-03-08 03:57:00,
2013-03-08 05:02:00,44.6,43.8,29.65,SSE,158,3.5,3.5,97,0.00,CLR,,0.01,0.0,WeatherDisplay:10.37,2013-03-08 04:02:00,
2013-03-08 05:07:00,44.6,43.8,29.62,SSE,158,5.8,5.8,97,0.00,CLR,,0.01,0.0,WeatherDisplay:10.37,2013-03-08 04:07:00,
2013-03-08 05:12:00,44.6,43.8,29.62,ESE,112,5.8,5.8,97,0.00,CLR,,0.01,0.0,WeatherDisplay:10.37,2013-03-08 04:12:00,
2013-03-08 05:17:00,44.6,43.8,29.62,SE,135,5.8,5.8,97,0.00,CLR,,0.01,0.0,WeatherDisplay:10.37,2013-03-08 04:17:00,
2013-03-08 05:22:00,44.6,44.1,29.62,ESE,112,5.8,5.8,98,0.00,CLR,,0.01,0.0,WeatherDisplay:10.37,2013-03-08 04:22:00,
2013-03-08 05:27:00,44.6,44.1,29.62,ESE,112,4.6,4.6,98,0.00,CLR,,0.01,0.0,WeatherDisplay:10.37,2013-03-08 04:27:00,
2013-03-08 05:32:00,44.6,44.1,29.62,East,90,5.8,5.8,98,0.00,CLR,,0.01,0.0,WeatherDisplay:10.37,2013-03-08 04:32:00,
2013-03-08 05:37:00,44.6,44.1,29.65,ESE,112,4.6,4.6,98,0.00,CLR,,0.01,0.0,WeatherDisplay:10.37,2013-03-08 04:37:00,
2013-03-08 05:42:00,44.6,44.1,29.65,ESE,112,3.5,3.5,98,0.00,CLR,,0.01,0.0,WeatherDisplay:10.37,2013-03-08 04:42:00,
2013-03-08 05:47:00,44.6,44.1,29.65,ENE,68,2.9,2.9,98,0.00,CLR,,0.01,0.0,WeatherDisplay:10.37,2013-03-08 04:47:00,
2013-03-08 05:52:00,44.4,43.9,29.65,ESE,112,5.4,5.4,98,0.00,CLR,,0.01,0.0,WeatherDisplay:10.37,2013-03-08 04:52:00,
2013-03-08 05:57:00,44.4,43.9,29.65,ESE,112,4.6,4.6,98,0.00,CLR,,0.01,0.0,WeatherDisplay:10.37,2013-03-08 04:57:00,
2013-03-08 06:00:00,44.4,43.9,29.65,ESE,112,5.8,5.8,98,0.00,CLR,,0.01,0.0,WeatherDisplay:10.37,2013-03-08 05:00:00,
2013-03-08 06:02:00,44.4,43.9,29.65,SSE,158,5.8,5.8,98,0.00,OVC,,0.01,0.0,WeatherDisplay:10.37,2013-03-08 05:02:00,
2013-03-08 06:07:00,44.4,43.9,29.62,East,90,4.6,4.6,98,0.00,OVC,,0.01,0.0,WeatherDisplay:10.37,2013-03-08 05:07:00,
2013-03-08 06:12:00,44.4,43.9,29.62,ENE,68,5.8,5.9,98,0.00,OVC,,0.01,0.0,WeatherDisplay:10.37,2013-03-08 05:12:00,
2013-03-08 06:17:00,44.4,43.9,29.62,East,90,2.3,2.3,98,0.00,OVC,,0.01,0.0,WeatherDisplay:10.37,2013-03-08 05:17:00,
2013-03-08 06:22:00,44.4,43.9,29.62,ESE,112,3.5,3.5,98,0.00,OVC,,0.01,0.0,WeatherDisplay:10.37,2013-03-08 05:22:00,
2013-03-08 06:27:00,44.4,43.9,29.62,SSE,158,2.6,2.6,98,0.00,OVC,,0.01,0.0,WeatherDisplay:10.37,2013-03-08 05:27:00,
2013-03-08 06:33:00,44.4,43.9,29.62,NNW,338,4.6,4.6,98,0.00,OVC,,0.01,0.0,WeatherDisplay:10.37,2013-03-08 05:33:00,
2013-03-08 06:38:00,44.4,43.9,29.65,SSW,202,3.5,3.5,98,0.00,OVC,,0.01,0.0,WeatherDisplay:10.37,2013-03-08 05:38:00,
2013-03-08 06:43:00,44.6,44.1,29.65,SE,135,2.6,2.6,98,0.00,OVC,,0.01,0.0,WeatherDisplay:10.37,2013-03-08 05:43:00,
2013-03-08 06:48:00,44.6,44.1,29.65,ESE,112,4.6,0.0,98,0.00,OVC,,0.01,0.0,WeatherDisplay:10.37,2013-03-08 05:48:00,
2013-03-08 06:53:00,44.6,44.1,29.65,SSW,202,2.3,2.3,98,0.00,OVC,,0.01,0.0,WeatherDisplay:10.37,2013-03-08 05:53:00,
2013-03-08 06:58:00,44.6,44.1,29.65,WSW,248,4.6,4.6,98,0.00,OVC,,0.01,0.0,WeatherDisplay:10.37,2013-03-08 05:58:00,
2013-03-08 07:03:00,44.6,44.1,29.65,ENE,68,4.7,4.7,98,0.00,RA,,0.00,0.0,WeatherDisplay:10.37,2013-03-08 06:03:00,
2013-03-08 07:08:00,44.6,44.1,29.65,ESE,112,4.6,4.6,98,0.00,RA,,0.00,0.0,WeatherDisplay:10.37,2013-03-08 06:08:00,
2013-03-08 07:13:00,44.8,44.3,29.65,ESE,112,4.9,4.9,98,0.00,OVC,,0.00,0.0,WeatherDisplay:10.37,2013-03-08 06:13:00,
2013-03-08 07:18:00,44.8,44.3,29.65,ESE,112,3.5,3.5,98,0.00,OVC,,0.00,0.0,WeatherDisplay:10.37,2013-03-08 06:18:00,
2013-03-08 07:23:00,44.8,44.3,29.68,ESE,112,4.7,4.7,98,0.00,OVC,,0.00,0.0,WeatherDisplay:10.37,2013-03-08 06:23:00,
2013-03-08 07:28:00,45.0,44.4,29.68,ESE,112,5.8,5.8,98,0.00,OVC,,0.00,0.0,WeatherDisplay:10.37,2013-03-08 06:28:00,
2013-03-08 07:33:00,45.0,44.4,29.68,ENE,68,5.8,5.8,98,0.00,OVC,,0.00,0.0,WeatherDisplay:10.37,2013-03-08 06:33:00,
2013-03-08 07:38:00,45.0,44.4,29.68,East,90,5.8,5.8,98,0.00,OVC,,0.00,0.0,WeatherDisplay:10.37,2013-03-08 06:38:00,
2013-03-08 07:43:00,45.0,44.4,29.68,ESE,112,4.6,4.6,98,0.00,OVC,,0.00,0.0,WeatherDisplay:10.37,2013-03-08 06:43:00,
2013-03-08 07:48:00,45.1,44.6,29.68,NNW,338,4.6,4.6,98,0.00,OVC,,0.00,0.0,WeatherDisplay:10.37,2013-03-08 06:48:00,
2013-03-08 07:53:00,45.1,44.6,29.65,ESE,112,4.6,4.6,98,0.00,OVC,,0.00,0.0,WeatherDisplay:10.37,2013-03-08 06:53:00,
2013-03-08 07:58:00,45.3,44.8,29.65,ESE,112,4.6,4.6,98,0.00,OVC,,0.00,0.0,WeatherDisplay:10.37,2013-03-08 06:58:00,
2013-03-08 08:03:00,45.3,44.8,29.65,ESE,112,3.5,3.5,98,0.00,OVC,,0.00,0.0,WeatherDisplay:10.37,2013-03-08 07:03:00,
2013-03-08 08:08:00,45.5,45.0,29.68,ESE,112,5.8,5.8,98,0.00,OVC,,0.00,0.0,WeatherDisplay:10.37,2013-03-08 07:08:00,
2013-03-08 08:13:00,45.7,45.1,29.68,ESE,112,5.8,5.8,98,0.00,OVC,,0.00,0.0,WeatherDisplay:10.37,2013-03-08 07:13:00,
2013-03-08 08:18:00,45.9,45.3,29.68,SSW,202,2.3,2.3,98,0.00,OVC,,0.00,0.0,WeatherDisplay:10.37,2013-03-08 07:18:00,
2013-03-08 08:23:00,46.0,45.5,29.68,NNW,338,1.2,1.2,98,0.00,OVC,,0.00,0.0,WeatherDisplay:10.37,2013-03-08 07:23:00,
2013-03-08 08:28:00,46.2,45.7,29.68,NW,315,3.5,3.5,98,0.00,OVC,,0.00,0.0,WeatherDisplay:10.37,2013-03-08 07:28:00,
2013-03-08 08:33:00,46.2,45.4,29.68,ENE,68,2.4,2.4,97,0.00,OVC,,0.00,0.0,WeatherDisplay:10.37,2013-03-08 07:33:00,
2013-03-08 08:38:00,46.4,45.6,29.68,NNE,22,2.3,2.3,97,0.00,OVC,,0.00,0.0,WeatherDisplay:10.37,2013-03-08 07:38:00,
2013-03-08 08:43:00,46.6,45.8,29.68,ESE,112,4.9,4.9,97,0.00,OVC,,0.00,0.0,WeatherDisplay:10.37,2013-03-08 07:43:00,
2013-03-08 08:48:00,46.6,45.8,29.62,ESE,112,5.8,0.0,97,0.00,OVC,,0.00,0.0,WeatherDisplay:10.37,2013-03-08 07:48:00,
2013-03-08 08:53:00,46.6,45.5,29.68,ESE,112,6.9,6.9,96,0.00,OVC,,0.00,0.0,WeatherDisplay:10.37,2013-03-08 07:53:00,
2013-03-08 08:58:00,46.6,45.5,29.68,ENE,68,6.9,6.9,96,0.00,OVC,,0.00,0.0,WeatherDisplay:10.37,2013-03-08 07:58:00,
2013-03-08 09:03:00,46.8,45.7,29.68,ESE,112,8.1,8.1,96,0.00,OVC,,0.00,0.0,WeatherDisplay:10.37,2013-03-08 08:03:00,
2013-03-08 09:08:00,46.8,45.7,29.68,ESE,112,5.8,5.8,96,0.00,OVC,,0.00,0.0,WeatherDisplay:10.37,2013-03-08 08:08:00,
2013-03-08 09:13:00,46.8,45.7,29.68,ESE,112,3.5,3.6,96,0.00,OVC,,0.00,0.0,WeatherDisplay:10.37,2013-03-08 08:13:00,
2013-03-08 09:18:00,46.8,45.7,29.68,WNW,292,2.3,2.3,96,0.00,OVC,,0.00,0.0,WeatherDisplay:10.37,2013-03-08 08:18:00,
2013-03-08 09:23:00,46.9,45.9,29.68,ESE,112,3.5,3.5,96,0.00,OVC,,0.00,0.0,WeatherDisplay:10.37,2013-03-08 08:23:00,
2013-03-08 09:28:00,47.1,45.8,29.68,SSE,158,2.3,2.3,95,0.00,OVC,,0.00,0.0,WeatherDisplay:10.37,2013-03-08 08:28:00,
2013-03-08 09:33:00,47.3,45.9,29.68,North,0,4.6,4.6,95,0.00,OVC,,0.00,0.0,WeatherDisplay:10.37,2013-03-08 08:33:00,
2013-03-08 09:38:00,47.5,46.1,29.65,ENE,68,4.6,4.6,95,0.00,OVC,,0.00,0.0,WeatherDisplay:10.37,2013-03-08 08:38:00,
2013-03-08 09:43:00,47.7,46.3,29.65,SSE,158,5.8,5.8,95,0.00,OVC,,0.00,0.0,WeatherDisplay:10.37,2013-03-08 08:43:00,
2013-03-08 09:48:00,47.7,46.3,29.65,ESE,112,3.5,3.5,95,0.00,OVC,,0.00,0.0,WeatherDisplay:10.37,2013-03-08 08:48:00,
2013-03-08 09:53:00,48.0,46.7,29.65,ESE,112,5.8,5.8,95,0.00,OVC,,0.00,0.0,WeatherDisplay:10.37,2013-03-08 08:53:00,
2013-03-08 09:58:00,48.2,46.6,29.65,North,0,5.8,5.8,94,0.00,OVC,,0.00,0.0,WeatherDisplay:10.37,2013-03-08 08:58:00,
2013-03-08 10:03:00,48.2,46.6,29.65,ESE,112,5.8,5.8,94,0.00,OVC,,0.00,0.0,WeatherDisplay:10.37,2013-03-08 09:03:00,
2013-03-08 10:08:00,48.4,46.4,29.62,ENE,68,3.8,3.8,93,0.00,OVC,,0.00,0.0,WeatherDisplay:10.37,2013-03-08 09:08:00,
2013-03-08 10:13:00,48.7,46.8,29.62,SSE,158,4.6,4.6,93,0.00,OVC,,0.00,0.0,WeatherDisplay:10.37,2013-03-08 09:13:00,
2013-03-08 10:18:00,48.9,47.0,29.62,SE,135,3.5,0.0,93,0.00,OVC,,0.00,0.0,WeatherDisplay:10.37,2013-03-08 09:18:00,
2013-03-08 10:23:00,49.5,47.5,29.59,East,90,5.8,5.8,93,0.00,OVC,,0.00,0.0,WeatherDisplay:10.37,2013-03-08 09:23:00,
2013-03-08 10:28:00,49.8,47.6,29.59,ESE,112,6.2,6.2,92,0.00,OVC,,0.00,0.0,WeatherDisplay:10.37,2013-03-08 09:28:00,
2013-03-08 10:33:00,50.0,47.5,29.59,SSE,158,3.6,3.6,91,0.00,OVC,,0.00,0.0,WeatherDisplay:10.37,2013-03-08 09:33:00,
2013-03-08 10:38:00,50.4,47.5,29.68,ESE,112,5.8,5.8,90,0.00,OVC,,0.00,0.0,WeatherDisplay:10.37,2013-03-08 09:38:00,
2013-03-08 10:43:00,50.5,47.7,29.68,ESE,112,5.9,5.9,90,0.00,OVC,,0.00,0.0,WeatherDisplay:10.37,2013-03-08 09:43:00,
2013-03-08 10:48:00,50.5,47.4,29.68,SSE,158,2.3,4.3,89,0.00,OVC,,0.00,0.0,WeatherDisplay:10.37,2013-03-08 09:48:00,
2013-03-08 10:53:00,50.7,47.6,29.62,ESE,112,3.5,3.5,89,0.00,OVC,,0.00,0.0,WeatherDisplay:10.37,2013-03-08 09:53:00,
2013-03-08 10:58:00,50.9,47.5,29.62,SSW,202,3.5,3.5,88,0.00,OVC,,0.00,0.0,WeatherDisplay:10.37,2013-03-08 09:58:00,
2013-03-08 11:03:00,51.3,47.8,29.62,SSW,202,3.5,3.5,88,0.00,OVC,,0.00,0.0,WeatherDisplay:10.37,2013-03-08 10:03:00,
2013-03-08 11:08:00,51.4,48.0,29.65,SSW,202,4.6,4.6,88,0.00,OVC,,0.00,0.0,WeatherDisplay:10.37,2013-03-08 10:08:00,
2013-03-08 11:13:00,51.8,48.1,29.65,ESE,112,5.8,5.8,87,0.00,OVC,,0.00,0.0,WeatherDisplay:10.37,2013-03-08 10:13:00,
2013-03-08 11:18:00,52.2,48.1,29.65,ESE,112,7.1,7.1,86,0.00,OVC,,0.00,0.0,WeatherDisplay:10.37,2013-03-08 10:18:00,
2013-03-08 11:23:00,52.3,48.3,29.62,ENE,68,4.6,4.6,86,0.00,OVC,,0.00,0.0,WeatherDisplay:10.37,2013-03-08 10:23:00,
2013-03-08 11:28:00,52.5,48.1,29.62,NNE,22,2.3,2.6,85,0.00,OVC,,0.00,0.0,WeatherDisplay:10.37,2013-03-08 10:28:00,
2013-03-08 11:33:00,52.7,48.3,29.62,ESE,112,3.8,3.8,85,0.00,OVC,,0.00,0.0,WeatherDisplay:10.37,2013-03-08 10:33:00,
2013-03-08 11:38:00,52.9,48.2,29.62,WSW,248,2.4,2.4,84,0.00,OVC,,0.00,0.0,WeatherDisplay:10.37,2013-03-08 10:38:00,
2013-03-08 11:43:00,53.1,48.7,29.62,West,270,3.5,3.5,85,0.00,OVC,,0.00,0.0,WeatherDisplay:10.37,2013-03-08 10:43:00,
2013-03-08 11:48:00,53.1,48.4,29.62,ESE,112,4.6,4.6,84,0.00,OVC,,0.00,0.0,WeatherDisplay:10.37,2013-03-08 10:48:00,
2013-03-08 11:53:00,53.4,48.7,29.65,NNW,338,3.5,3.5,84,0.00,OVC,,0.00,0.0,WeatherDisplay:10.37,2013-03-08 10:53:00,
2013-03-08 11:58:00,53.6,48.6,29.65,ESE,112,3.5,3.5,83,0.00,OVC,,0.00,0.0,WeatherDisplay:10.37,2013-03-08 10:58:00,
2013-03-08 12:03:00,53.6,48.6,29.65,NNE,22,3.5,3.5,83,0.00,OVC,,0.00,0.0,WeatherDisplay:10.37,2013-03-08 11:03:00,
2013-03-08 12:08:00,53.6,48.2,29.62,West,270,0.0,0.0,82,0.00,OVC,,0.00,0.0,WeatherDisplay:10.37,2013-03-08 11:08:00,
2013-03-08 12:13:00,53.8,48.4,29.62,ESE,112,2.3,2.4,82,0.00,OVC,,0.00,0.0,WeatherDisplay:10.37,2013-03-08 11:13:00,
2013-03-08 12:18:00,54.0,48.6,29.62,WNW,292,0.0,0.0,82,0.00,OVC,,0.00,0.0,WeatherDisplay:10.37,2013-03-08 11:18:00,
2013-03-08 12:23:00,54.5,49.1,29.59,SSW,202,0.0,0.0,82,0.00,OVC,,0.00,0.0,WeatherDisplay:10.37,2013-03-08 11:23:00,
2013-03-08 12:28:00,55.0,49.3,29.59,ESE,112,3.5,3.5,81,0.00,OVC,,0.00,0.0,WeatherDisplay:10.37,2013-03-08 11:28:00,
2013-03-08 12:33:00,55.2,49.5,29.59,ENE,68,3.5,3.5,81,0.00,OVC,,0.00,0.0,WeatherDisplay:10.37,2013-03-08 11:33:00,
2013-03-08 12:38:00,55.4,49.3,29.62,SSW,202,1.2,1.2,80,0.00,OVC,,0.00,0.0,WeatherDisplay:10.37,2013-03-08 11:38:00,
2013-03-08 12:43:00,55.6,48.8,29.62,WSW,248,2.3,2.3,78,0.00,OVC,,0.00,0.0,WeatherDisplay:10.37,2013-03-08 11:43:00,
2013-03-08 12:48:00,55.6,49.2,29.62,NW,315,2.3,2.3,79,0.00,OVC,,0.00,0.0,WeatherDisplay:10.37,2013-03-08 11:48:00,
2013-03-08 12:53:00,55.6,49.2,29.65,ESE,112,0.0,0.0,79,0.00,OVC,,0.00,0.0,WeatherDisplay:10.37,2013-03-08 11:53:00,
2013-03-08 12:58:00,55.6,49.2,29.65,ENE,68,1.2,0.0,79,0.00,OVC,,0.00,0.0,WeatherDisplay:10.37,2013-03-08 11:58:00,
2013-03-08 18:46:00,50.2,48.5,29.59,ENE,68,7.1,7.1,94,0.01,CLR,,0.07,0.0,WeatherDisplay:10.37,2013-03-08 17:46:00,
2013-03-08 18:51:00,50.2,48.5,29.59,ENE,68,3.5,3.5,94,0.00,CLR,,0.07,0.0,WeatherDisplay:10.37,2013-03-08 17:51:00,
2013-03-08 18:56:00,50.0,48.3,29.59,ESE,112,2.3,2.3,94,0.00,CLR,,0.07,0.0,WeatherDisplay:10.37,2013-03-08 17:56:00,
2013-03-08 19:01:00,50.0,48.3,29.59,NNE,22,2.6,0.0,94,0.00,CLR,,0.07,0.0,WeatherDisplay:10.37,2013-03-08 18:01:00,
2013-03-08 19:06:00,49.8,48.4,29.59,ENE,68,3.5,3.5,95,0.00,CLR,,0.07,0.0,WeatherDisplay:10.37,2013-03-08 18:06:00,
2013-03-08 19:11:00,49.8,48.2,29.56,SE,135,4.6,4.6,94,0.00,CLR,,0.07,0.0,WeatherDisplay:10.37,2013-03-08 18:11:00,
2013-03-08 19:16:00,49.6,48.3,29.56,NE,45,5.8,5.8,95,0.00,RA,,0.07,0.0,WeatherDisplay:10.37,2013-03-08 18:16:00,
2013-03-08 19:21:00,49.6,48.3,29.56,ENE,68,4.6,4.6,95,0.00,RA,,0.07,0.0,WeatherDisplay:10.37,2013-03-08 18:21:00,
2013-03-08 19:26:00,49.5,47.8,29.59,NNE,22,5.8,5.8,94,0.00,,,0.07,0.0,WeatherDisplay:10.37,2013-03-08 18:26:00,
2013-03-08 19:31:00,49.5,48.1,29.59,WSW,248,0.0,0.0,95,0.00,CLR,,0.07,0.0,WeatherDisplay:10.37,2013-03-08 18:31:00,
2013-03-08 19:36:00,49.3,47.9,29.59,NW,315,2.3,2.3,95,0.00,CLR,,0.07,0.0,WeatherDisplay:10.37,2013-03-08 18:36:00,
2013-03-08 19:41:00,49.3,48.2,29.59,SE,135,3.5,3.5,96,0.00,CLR,,0.07,0.0,WeatherDisplay:10.37,2013-03-08 18:41:00,
2013-03-08 19:46:00,49.3,48.2,29.59,ESE,112,3.6,3.6,96,0.00,CLR,,0.07,0.0,WeatherDisplay:10.37,2013-03-08 18:46:00,
2013-03-08 19:51:00,49.3,48.2,29.59,NNW,338,4.6,4.6,96,0.00,CLR,,0.07,0.0,WeatherDisplay:10.37,2013-03-08 18:51:00,
2013-03-08 19:56:00,49.3,48.2,29.59,ENE,68,4.9,4.9,96,0.00,CLR,,0.07,0.0,WeatherDisplay:10.37,2013-03-08 18:56:00,
2013-03-08 20:01:00,49.3,48.2,29.59,SSE,158,3.5,3.5,96,0.00,CLR,,0.07,0.0,WeatherDisplay:10.37,2013-03-08 19:01:00,
2013-03-08 20:06:00,49.3,48.2,29.59,SSW,202,3.5,3.5,96,0.00,CLR,,0.07,0.0,WeatherDisplay:10.37,2013-03-08 19:06:00,
2013-03-08 20:11:00,49.1,48.0,29.59,SSW,202,4.6,4.6,96,0.00,CLR,,0.07,0.0,WeatherDisplay:10.37,2013-03-08 19:11:00,
2013-03-08 20:16:00,49.1,48.0,29.59,ESE,112,2.3,2.3,96,0.00,CLR,,0.07,0.0,WeatherDisplay:10.37,2013-03-08 19:16:00,
2013-03-08 20:21:00,49.1,48.0,29.59,East,90,8.1,8.1,96,0.00,CLR,,0.07,0.0,WeatherDisplay:10.37,2013-03-08 19:21:00,
2013-03-08 20:26:00,49.1,48.3,29.56,East,90,3.5,3.5,97,0.00,CLR,,0.07,0.0,WeatherDisplay:10.37,2013-03-08 19:26:00,
2013-03-08 20:31:00,49.1,48.3,29.56,ENE,68,6.2,6.2,97,0.00,CLR,,0.07,0.0,WeatherDisplay:10.37,2013-03-08 19:31:00,
2013-03-08 20:36:00,49.1,48.3,29.56,ESE,112,5.8,5.8,97,0.00,CLR,,0.07,0.0,WeatherDisplay:10.37,2013-03-08 19:36:00,
2013-03-08 20:41:00,49.1,48.0,29.53,ENE,68,4.6,4.6,96,0.00,CLR,,0.07,0.0,WeatherDisplay:10.37,2013-03-08 19:41:00,
2013-03-08 20:46:00,49.1,48.0,29.53,ESE,112,4.6,4.6,96,0.00,CLR,,0.07,0.0,WeatherDisplay:10.37,2013-03-08 19:46:00,
2013-03-08 20:51:00,49.1,48.0,29.53,NNE,22,5.8,5.8,96,0.00,CLR,,0.07,0.0,WeatherDisplay:10.37,2013-03-08 19:51:00,
2013-03-08 20:56:00,49.1,48.0,29.53,SSE,158,4.6,4.6,96,0.00,CLR,,0.07,0.0,WeatherDisplay:10.37,2013-03-08 19:56:00,
2013-03-08 21:01:00,48.9,47.8,29.53,ESE,112,2.6,2.6,96,0.00,CLR,,0.07,0.0,WeatherDisplay:10.37,2013-03-08 20:01:00,
2013-03-08 21:06:00,48.9,47.8,29.53,ESE,112,3.5,3.5,96,0.00,CLR,,0.07,0.0,WeatherDisplay:10.37,2013-03-08 20:06:00,
2013-03-08 21:11:00,48.9,47.8,29.56,NNW,338,1.2,0.0,96,0.00,CLR,,0.07,0.0,WeatherDisplay:10.37,2013-03-08 20:11:00,
2013-03-08 21:16:00,48.7,47.9,29.56,SE,135,2.3,2.3,97,0.00,CLR,,0.07,0.0,WeatherDisplay:10.37,2013-03-08 20:16:00,
2013-03-08 21:21:00,48.7,47.9,29.56,ESE,112,2.3,2.3,97,0.00,CLR,,0.07,0.0,WeatherDisplay:10.37,2013-03-08 20:21:00,
2013-03-08 21:26:00,48.7,47.9,29.59,ESE,112,1.2,0.0,97,0.00,CLR,,0.07,0.0,WeatherDisplay:10.37,2013-03-08 20:26:00,
2013-03-08 21:31:00,48.6,47.7,29.59,NNE,22,0.0,0.0,97,0.00,CLR,,0.07,0.0,WeatherDisplay:10.37,2013-03-08 20:31:00,
2013-03-08 21:36:00,48.6,47.7,29.59,ESE,112,4.6,4.6,97,0.00,CLR,,0.07,0.0,WeatherDisplay:10.37,2013-03-08 20:36:00,
2013-03-08 21:41:00,48.4,47.6,29.59,ENE,68,2.3,2.3,97,0.00,CLR,,0.07,0.0,WeatherDisplay:10.37,2013-03-08 20:41:00,
2013-03-08 21:46:00,48.2,47.4,29.59,ESE,112,2.3,2.3,97,0.00,CLR,,0.07,0.0,WeatherDisplay:10.37,2013-03-08 20:46:00,
2013-03-08 21:51:00,48.2,47.4,29.59,East,90,2.3,2.3,97,0.00,CLR,,0.07,0.0,WeatherDisplay:10.37,2013-03-08 20:51:00,
2013-03-08 21:56:00,48.2,47.4,29.59,ESE,112,2.4,0.0,97,0.00,CLR,,0.07,0.0,WeatherDisplay:10.37,2013-03-08 20:56:00,
2013-03-08 22:01:00,48.2,47.4,29.59,SE,135,3.5,3.5,97,0.00,CLR,,0.07,0.0,WeatherDisplay:10.37,2013-03-08 21:01:00,
2013-03-08 22:06:00,48.2,47.4,29.59,NNE,22,0.0,0.0,97,0.00,CLR,,0.07,0.0,WeatherDisplay:10.37,2013-03-08 21:06:00,
2013-03-08 22:11:00,48.0,47.5,29.59,NNE,22,1.2,0.0,98,0.00,CLR,,0.07,0.0,WeatherDisplay:10.37,2013-03-08 21:11:00,
2013-03-08 22:16:00,48.0,47.5,29.59,East,90,0.0,0.0,98,0.00,CLR,,0.07,0.0,WeatherDisplay:10.37,2013-03-08 21:16:00,
2013-03-08 22:21:00,48.0,47.5,29.59,ESE,112,3.5,3.5,98,0.00,CLR,,0.07,0.0,WeatherDisplay:10.37,2013-03-08 21:21:00,
2013-03-08 22:26:00,48.0,47.5,29.59,ENE,68,3.5,3.5,98,0.00,CLR,,0.07,0.0,WeatherDisplay:10.37,2013-03-08 21:26:00,
2013-03-08 22:31:00,48.0,47.5,29.59,NE,45,4.6,4.6,98,0.00,CLR,,0.07,0.0,WeatherDisplay:10.37,2013-03-08 21:31:00,
2013-03-08 22:36:00,48.0,47.5,29.59,ESE,112,4.6,4.6,98,0.00,CLR,,0.07,0.0,WeatherDisplay:10.37,2013-03-08 21:36:00,
2013-03-08 22:41:00,48.0,47.5,29.59,ENE,68,2.9,0.0,98,0.00,CLR,,0.07,0.0,WeatherDisplay:10.37,2013-03-08 21:41:00,
2013-03-08 22:46:00,48.0,47.5,29.59,NE,45,0.0,0.0,98,0.00,CLR,,0.07,0.0,WeatherDisplay:10.37,2013-03-08 21:46:00,
2013-03-08 22:51:00,48.0,47.5,29.59,NNE,22,2.3,2.3,98,0.00,CLR,,0.07,0.0,WeatherDisplay:10.37,2013-03-08 21:51:00,
2013-03-08 22:56:00,48.0,47.5,29.59,ENE,68,2.3,0.0,98,0.00,CLR,,0.07,0.0,WeatherDisplay:10.37,2013-03-08 21:56:00,
2013-03-08 23:01:00,48.2,47.7,29.59,ENE,68,2.3,0.0,98,0.00,CLR,,0.07,0.0,WeatherDisplay:10.37,2013-03-08 22:01:00,
2013-03-08 23:06:00,48.2,47.7,29.59,NNW,338,0.0,0.0,98,0.00,CLR,,0.07,0.0,WeatherDisplay:10.37,2013-03-08 22:06:00,
2013-03-08 23:11:00,48.2,47.7,29.59,ESE,112,2.9,2.9,98,0.00,CLR,,0.07,0.0,WeatherDisplay:10.37,2013-03-08 22:11:00,
2013-03-08 23:16:00,48.2,47.7,29.59,NNW,338,3.5,3.5,98,0.00,CLR,,0.07,0.0,WeatherDisplay:10.37,2013-03-08 22:16:00,
2013-03-08 23:21:00,48.2,47.7,29.59,ESE,112,2.3,2.3,98,0.00,CLR,,0.07,0.0,WeatherDisplay:10.37,2013-03-08 22:21:00,
2013-03-08 23:26:00,48.2,47.7,29.59,ESE,112,2.3,2.3,98,0.00,CLR,,0.07,0.0,WeatherDisplay:10.37,2013-03-08 22:26:00,
2013-03-08 23:31:00,48.2,47.7,29.59,ESE,112,4.6,4.6,98,0.00,CLR,,0.07,0.0,WeatherDisplay:10.37,2013-03-08 22:31:00,
2013-03-08 23:36:00,48.0,47.5,29.59,ESE,112,2.3,2.4,98,0.00,CLR,,0.07,0.0,WeatherDisplay:10.37,2013-03-08 22:36:00,
2013-03-08 23:41:00,48.0,47.5,29.59,ESE,112,1.2,0.0,98,0.00,CLR,,0.07,0.0,WeatherDisplay:10.37,2013-03-08 22:41:00,
2013-03-08 23:46:00,48.0,47.5,29.59,ESE,112,2.3,2.3,98,0.00,CLR,,0.07,0.0,WeatherDisplay:10.37,2013-03-08 22:46:00,
2013-03-08 23:51:00,47.8,47.3,29.59,ESE,112,3.8,3.8,98,0.00,CLR,,0.07,0.0,WeatherDisplay:10.37,2013-03-08 22:51:00,
2013-03-08 23:56:00,47.8,47.3,29.56,ESE,112,2.3,2.3,98,0.00,CLR,,0.07,0.0,WeatherDisplay:10.37,2013-03-08 22:56:00,